sensor_id;sensor_type;location;lat;lon;timestamp;temperature;humidity
60309;DHT22;50313;52.894;6.492;2023-06-26T00:02:51;21.50;99.40
60309;DHT22;50313;52.894;6.492;2023-06-26T00:05:19;21.60;99.60
60309;DHT22;50313;52.894;6.492;2023-06-26T00:08:14;21.60;99.80
60309;DHT22;50313;52.894;6.492;2023-06-26T00:11:16;21.60;99.40
60309;DHT22;50313;52.894;6.492;2023-06-26T00:13:47;21.60;99.60
60309;DHT22;50313;52.894;6.492;2023-06-26T00:16:31;21.60;99.40
60309;DHT22;50313;52.894;6.492;2023-06-26T00:19:02;21.60;99.70
60309;DHT22;50313;52.894;6.492;2023-06-26T00:21:38;21.50;99.70
60309;DHT22;50313;52.894;6.492;2023-06-26T00:24:12;21.50;99.50
60309;DHT22;50313;52.894;6.492;2023-06-26T00:26:40;21.50;99.70
60309;DHT22;50313;52.894;6.492;2023-06-26T00:29:16;21.50;99.60
60309;DHT22;50313;52.894;6.492;2023-06-26T00:31:45;21.40;99.70
60309;DHT22;50313;52.894;6.492;2023-06-26T00:34:21;21.40;99.60
60309;DHT22;50313;52.894;6.492;2023-06-26T00:37:00;21.30;99.50
60309;DHT22;50313;52.894;6.492;2023-06-26T00:39:31;21.30;99.70
60309;DHT22;50313;52.894;6.492;2023-06-26T00:42:07;21.30;99.90
60309;DHT22;50313;52.894;6.492;2023-06-26T00:44:38;21.30;99.90
60309;DHT22;50313;52.894;6.492;2023-06-26T00:47:06;21.30;99.90
60309;DHT22;50313;52.894;6.492;2023-06-26T00:49:43;21.30;99.80
60309;DHT22;50313;52.894;6.492;2023-06-26T00:52:21;21.40;99.80
60309;DHT22;50313;52.894;6.492;2023-06-26T00:54:53;21.30;99.80
60309;DHT22;50313;52.894;6.492;2023-06-26T00:57:26;21.30;99.90
60309;DHT22;50313;52.894;6.492;2023-06-26T00:59:58;21.30;99.90
60309;DHT22;50313;52.894;6.492;2023-06-26T01:02:24;21.30;99.90
60309;DHT22;50313;52.894;6.492;2023-06-26T01:04:57;21.30;99.90
60309;DHT22;50313;52.894;6.492;2023-06-26T01:07:28;21.30;99.90
60309;DHT22;50313;52.894;6.492;2023-06-26T01:09:56;21.30;99.90
60309;DHT22;50313;52.894;6.492;2023-06-26T01:12:29;21.40;99.90
60309;DHT22;50313;52.894;6.492;2023-06-26T01:15:01;21.30;99.90
60309;DHT22;50313;52.894;6.492;2023-06-26T01:17:47;21.30;99.90
60309;DHT22;50313;52.894;6.492;2023-06-26T01:20:16;21.20;99.90
60309;DHT22;50313;52.894;6.492;2023-06-26T01:23:12;21.20;99.90
60309;DHT22;50313;52.894;6.492;2023-06-26T01:28:44;21.10;99.90
60309;DHT22;50313;52.894;6.492;2023-06-26T01:31:20;21.00;99.90
60309;DHT22;50313;52.894;6.492;2023-06-26T01:33:52;21.00;99.90
60309;DHT22;50313;52.894;6.492;2023-06-26T01:36:18;20.90;99.90
60309;DHT22;50313;52.894;6.492;2023-06-26T01:38:46;21.00;99.90
60309;DHT22;50313;52.894;6.492;2023-06-26T01:41:23;21.00;99.90
60309;DHT22;50313;52.894;6.492;2023-06-26T01:44:11;21.00;99.90
60309;DHT22;50313;52.894;6.492;2023-06-26T01:46:58;20.90;99.90
60309;DHT22;50313;52.894;6.492;2023-06-26T01:49:31;20.90;99.90
60309;DHT22;50313;52.894;6.492;2023-06-26T01:57:32;20.90;99.90
60309;DHT22;50313;52.894;6.492;2023-06-26T02:00:01;20.80;99.90
60309;DHT22;50313;52.894;6.492;2023-06-26T02:02:28;20.80;99.90
60309;DHT22;50313;52.894;6.492;2023-06-26T02:05:17;20.70;99.90
60309;DHT22;50313;52.894;6.492;2023-06-26T02:07:43;20.70;99.90
60309;DHT22;50313;52.894;6.492;2023-06-26T02:10:09;20.70;99.90
60309;DHT22;50313;52.894;6.492;2023-06-26T02:12:39;20.60;99.90
60309;DHT22;50313;52.894;6.492;2023-06-26T02:15:07;20.60;99.90
60309;DHT22;50313;52.894;6.492;2023-06-26T02:17:38;20.50;99.90
60309;DHT22;50313;52.894;6.492;2023-06-26T02:20:04;20.60;99.90
60309;DHT22;50313;52.894;6.492;2023-06-26T02:22:42;20.60;99.90
60309;DHT22;50313;52.894;6.492;2023-06-26T02:25:09;20.70;99.90
60309;DHT22;50313;52.894;6.492;2023-06-26T02:27:35;20.60;99.90
60309;DHT22;50313;52.894;6.492;2023-06-26T02:30:08;20.70;99.90
60309;DHT22;50313;52.894;6.492;2023-06-26T02:32:34;20.70;99.90
60309;DHT22;50313;52.894;6.492;2023-06-26T02:35:09;20.70;99.90
60309;DHT22;50313;52.894;6.492;2023-06-26T02:37:37;20.70;99.90
60309;DHT22;50313;52.894;6.492;2023-06-26T02:40:21;20.70;99.90
60309;DHT22;50313;52.894;6.492;2023-06-26T02:42:58;20.70;99.90
60309;DHT22;50313;52.894;6.492;2023-06-26T02:45:29;20.70;99.90
60309;DHT22;50313;52.894;6.492;2023-06-26T02:47:55;20.70;99.90
60309;DHT22;50313;52.894;6.492;2023-06-26T02:50:21;20.60;99.90
60309;DHT22;50313;52.894;6.492;2023-06-26T02:56:13;20.60;99.90
60309;DHT22;50313;52.894;6.492;2023-06-26T02:59:10;20.50;99.90
60309;DHT22;50313;52.894;6.492;2023-06-26T03:02:09;20.50;99.90
60309;DHT22;50313;52.894;6.492;2023-06-26T03:04:37;20.40;99.90
60309;DHT22;50313;52.894;6.492;2023-06-26T03:07:11;20.50;99.90
60309;DHT22;50313;52.894;6.492;2023-06-26T03:09:37;20.50;99.90
60309;DHT22;50313;52.894;6.492;2023-06-26T03:12:03;20.60;99.90
60309;DHT22;50313;52.894;6.492;2023-06-26T03:14:33;20.50;99.90
60309;DHT22;50313;52.894;6.492;2023-06-26T03:17:01;20.50;99.90
60309;DHT22;50313;52.894;6.492;2023-06-26T03:19:31;20.50;99.90
60309;DHT22;50313;52.894;6.492;2023-06-26T03:21:57;20.60;99.90
60309;DHT22;50313;52.894;6.492;2023-06-26T03:24:23;20.60;99.90
60309;DHT22;50313;52.894;6.492;2023-06-26T03:26:58;20.50;99.90
60309;DHT22;50313;52.894;6.492;2023-06-26T03:29:34;20.60;99.90
60309;DHT22;50313;52.894;6.492;2023-06-26T03:32:07;20.60;99.90
60309;DHT22;50313;52.894;6.492;2023-06-26T03:34:36;20.60;99.90
60309;DHT22;50313;52.894;6.492;2023-06-26T03:37:20;20.50;99.90
60309;DHT22;50313;52.894;6.492;2023-06-26T03:39:51;20.60;99.90
60309;DHT22;50313;52.894;6.492;2023-06-26T03:42:28;20.50;99.90
60309;DHT22;50313;52.894;6.492;2023-06-26T03:44:54;20.50;99.90
60309;DHT22;50313;52.894;6.492;2023-06-26T03:47:30;20.60;99.90
60309;DHT22;50313;52.894;6.492;2023-06-26T03:49:55;20.60;99.90
60309;DHT22;50313;52.894;6.492;2023-06-26T03:52:21;20.60;99.90
60309;DHT22;50313;52.894;6.492;2023-06-26T03:54:52;20.60;99.90
60309;DHT22;50313;52.894;6.492;2023-06-26T03:57:20;20.70;99.90
60309;DHT22;50313;52.894;6.492;2023-06-26T03:59:52;20.60;99.90
60309;DHT22;50313;52.894;6.492;2023-06-26T04:02:21;20.70;99.90
60309;DHT22;50313;52.894;6.492;2023-06-26T04:04:50;20.70;99.90
60309;DHT22;50313;52.894;6.492;2023-06-26T04:07:22;20.80;99.90
60309;DHT22;50313;52.894;6.492;2023-06-26T04:09:48;20.80;99.90
60309;DHT22;50313;52.894;6.492;2023-06-26T04:12:17;20.80;99.90
60309;DHT22;50313;52.894;6.492;2023-06-26T04:14:51;20.80;99.90
60309;DHT22;50313;52.894;6.492;2023-06-26T04:17:19;20.80;99.90
60309;DHT22;50313;52.894;6.492;2023-06-26T04:19:47;20.80;99.90
60309;DHT22;50313;52.894;6.492;2023-06-26T04:22:18;20.80;99.90
60309;DHT22;50313;52.894;6.492;2023-06-26T04:24:51;20.80;99.90
60309;DHT22;50313;52.894;6.492;2023-06-26T04:27:24;20.80;99.90
60309;DHT22;50313;52.894;6.492;2023-06-26T04:29:52;20.90;99.90
60309;DHT22;50313;52.894;6.492;2023-06-26T04:32:22;20.90;99.90
60309;DHT22;50313;52.894;6.492;2023-06-26T04:34:50;20.90;99.90
60309;DHT22;50313;52.894;6.492;2023-06-26T04:37:19;21.00;99.90
60309;DHT22;50313;52.894;6.492;2023-06-26T04:39:47;21.00;99.90
60309;DHT22;50313;52.894;6.492;2023-06-26T04:42:13;21.10;99.90
60309;DHT22;50313;52.894;6.492;2023-06-26T04:44:39;21.10;99.90
60309;DHT22;50313;52.894;6.492;2023-06-26T04:47:12;21.20;99.90
60309;DHT22;50313;52.894;6.492;2023-06-26T04:49:46;21.10;99.90
60309;DHT22;50313;52.894;6.492;2023-06-26T04:52:14;21.10;99.90
60309;DHT22;50313;52.894;6.492;2023-06-26T04:54:40;21.10;99.90
60309;DHT22;50313;52.894;6.492;2023-06-26T04:57:06;21.10;99.90
60309;DHT22;50313;52.894;6.492;2023-06-26T04:59:31;21.00;99.90
60309;DHT22;50313;52.894;6.492;2023-06-26T05:01:57;21.10;99.90
60309;DHT22;50313;52.894;6.492;2023-06-26T05:04:23;21.10;99.90
60309;DHT22;50313;52.894;6.492;2023-06-26T05:07:05;21.00;99.90
60309;DHT22;50313;52.894;6.492;2023-06-26T05:09:31;21.10;99.90
60309;DHT22;50313;52.894;6.492;2023-06-26T05:12:05;21.00;99.90
60309;DHT22;50313;52.894;6.492;2023-06-26T05:14:41;21.00;99.90
60309;DHT22;50313;52.894;6.492;2023-06-26T05:17:28;21.10;99.90
60309;DHT22;50313;52.894;6.492;2023-06-26T05:20:02;20.90;99.90
60309;DHT22;50313;52.894;6.492;2023-06-26T05:22:32;21.00;99.90
60309;DHT22;50313;52.894;6.492;2023-06-26T05:25:15;20.80;99.90
60309;DHT22;50313;52.894;6.492;2023-06-26T05:28:00;20.90;99.90
60309;DHT22;50313;52.894;6.492;2023-06-26T05:30:43;20.80;99.90
60309;DHT22;50313;52.894;6.492;2023-06-26T05:33:24;20.60;99.90
60309;DHT22;50313;52.894;6.492;2023-06-26T05:36:09;20.60;99.90
60309;DHT22;50313;52.894;6.492;2023-06-26T05:38:38;20.60;99.90
60309;DHT22;50313;52.894;6.492;2023-06-26T05:41:06;20.40;99.90
60309;DHT22;50313;52.894;6.492;2023-06-26T05:43:34;20.50;99.90
60309;DHT22;50313;52.894;6.492;2023-06-26T05:46:10;20.40;99.90
60309;DHT22;50313;52.894;6.492;2023-06-26T05:48:52;20.40;99.90
60309;DHT22;50313;52.894;6.492;2023-06-26T05:51:40;20.40;99.90
60309;DHT22;50313;52.894;6.492;2023-06-26T05:54:09;20.40;99.90
60309;DHT22;50313;52.894;6.492;2023-06-26T05:56:38;20.40;99.90
60309;DHT22;50313;52.894;6.492;2023-06-26T05:59:15;20.40;99.90
60309;DHT22;50313;52.894;6.492;2023-06-26T06:01:44;20.50;99.90
60309;DHT22;50313;52.894;6.492;2023-06-26T06:04:18;20.60;99.90
60309;DHT22;50313;52.894;6.492;2023-06-26T06:06:49;20.50;99.90
60309;DHT22;50313;52.894;6.492;2023-06-26T06:09:26;20.50;99.90
60309;DHT22;50313;52.894;6.492;2023-06-26T06:12:28;20.60;99.90
60309;DHT22;50313;52.894;6.492;2023-06-26T06:19:01;20.60;99.90
60309;DHT22;50313;52.894;6.492;2023-06-26T06:21:49;20.60;99.90
60309;DHT22;50313;52.894;6.492;2023-06-26T06:27:25;20.60;99.90
60309;DHT22;50313;52.894;6.492;2023-06-26T06:30:01;20.70;99.90
60309;DHT22;50313;52.894;6.492;2023-06-26T06:32:38;20.80;99.90
60309;DHT22;50313;52.894;6.492;2023-06-26T06:35:21;20.90;99.90
60309;DHT22;50313;52.894;6.492;2023-06-26T06:37:55;21.00;99.90
60309;DHT22;50313;52.894;6.492;2023-06-26T08:38:03;22.90;92.50
60309;DHT22;50313;52.894;6.492;2023-06-26T08:44:35;23.40;90.70
60309;DHT22;50313;52.894;6.492;2023-06-26T08:47:58;22.90;91.90
60309;DHT22;50313;52.894;6.492;2023-06-26T08:58:22;23.10;91.30
60309;DHT22;50313;52.894;6.492;2023-06-26T09:01:05;22.80;92.40
60309;DHT22;50313;52.894;6.492;2023-06-26T09:18:20;22.40;93.70
60309;DHT22;50313;52.894;6.492;2023-06-26T09:24:59;22.90;93.00
60309;DHT22;50313;52.894;6.492;2023-06-26T09:34:54;22.70;92.90
60309;DHT22;50313;52.894;6.492;2023-06-26T09:37:43;23.40;91.00
60309;DHT22;50313;52.894;6.492;2023-06-26T09:54:50;23.50;90.60
60309;DHT22;50313;52.894;6.492;2023-06-26T14:14:31;22.40;76.20
60309;DHT22;50313;52.894;6.492;2023-06-26T14:41:18;22.60;72.60
60309;DHT22;50313;52.894;6.492;2023-06-26T15:58:06;22.20;72.20
60309;DHT22;50313;52.894;6.492;2023-06-26T16:01:14;21.80;72.40
60309;DHT22;50313;52.894;6.492;2023-06-26T16:04:18;22.40;69.80
60309;DHT22;50313;52.894;6.492;2023-06-26T16:09:59;24.30;66.40
60309;DHT22;50313;52.894;6.492;2023-06-26T16:12:48;24.30;68.00
60309;DHT22;50313;52.894;6.492;2023-06-26T16:18:49;24.90;62.40
60309;DHT22;50313;52.894;6.492;2023-06-26T16:21:32;24.50;61.90
60309;DHT22;50313;52.894;6.492;2023-06-26T16:24:38;23.60;63.70
60309;DHT22;50313;52.894;6.492;2023-06-26T16:27:24;23.40;64.50
60309;DHT22;50313;52.894;6.492;2023-06-26T16:30:12;22.60;65.10
60309;DHT22;50313;52.894;6.492;2023-06-26T16:33:02;24.00;64.50
60309;DHT22;50313;52.894;6.492;2023-06-26T16:39:10;24.20;58.80
60309;DHT22;50313;52.894;6.492;2023-06-26T16:45:06;24.40;57.50
60309;DHT22;50313;52.894;6.492;2023-06-26T16:48:08;25.00;58.40
60309;DHT22;50313;52.894;6.492;2023-06-26T16:55:25;24.10;56.20
60309;DHT22;50313;52.894;6.492;2023-06-26T17:20:04;24.70;55.30
60309;DHT22;50313;52.894;6.492;2023-06-26T17:52:24;20.60;65.50
60309;DHT22;50313;52.894;6.492;2023-06-26T18:00:19;20.10;68.00
60309;DHT22;50313;52.894;6.492;2023-06-26T18:32:15;19.30;67.40
60309;DHT22;50313;52.894;6.492;2023-06-26T18:35:30;19.20;68.40
60309;DHT22;50313;52.894;6.492;2023-06-26T18:39:02;19.00;67.30
60309;DHT22;50313;52.894;6.492;2023-06-26T18:48:02;19.00;68.50
60309;DHT22;50313;52.894;6.492;2023-06-26T19:02:26;18.70;72.00
60309;DHT22;50313;52.894;6.492;2023-06-26T19:08:50;18.50;72.20
60309;DHT22;50313;52.894;6.492;2023-06-26T19:37:40;18.00;74.40
60309;DHT22;50313;52.894;6.492;2023-06-26T19:40:57;17.70;75.90
60309;DHT22;50313;52.894;6.492;2023-06-26T19:50:50;17.30;78.10
60309;DHT22;50313;52.894;6.492;2023-06-26T19:53:38;17.10;79.50
60309;DHT22;50313;52.894;6.492;2023-06-26T19:59:21;16.80;80.90
60309;DHT22;50313;52.894;6.492;2023-06-26T20:05:44;16.60;83.20
60309;DHT22;50313;52.894;6.492;2023-06-26T20:08:42;16.50;84.10
60309;DHT22;50313;52.894;6.492;2023-06-26T20:15:09;16.30;86.70
60309;DHT22;50313;52.894;6.492;2023-06-26T20:25:36;16.00;89.50
60309;DHT22;50313;52.894;6.492;2023-06-26T20:32:36;15.70;91.00
60309;DHT22;50313;52.894;6.492;2023-06-26T20:35:45;15.60;91.70
60309;DHT22;50313;52.894;6.492;2023-06-26T20:46:06;15.40;93.20
60309;DHT22;50313;52.894;6.492;2023-06-26T20:51:56;15.30;94.10
60309;DHT22;50313;52.894;6.492;2023-06-26T20:55:01;15.20;94.60
60309;DHT22;50313;52.894;6.492;2023-06-26T21:04:32;15.00;95.60
60309;DHT22;50313;52.894;6.492;2023-06-26T21:07:27;15.00;96.20
60309;DHT22;50313;52.894;6.492;2023-06-26T21:10:18;14.90;97.10
60309;DHT22;50313;52.894;6.492;2023-06-26T21:13:06;14.80;97.30
60309;DHT22;50313;52.894;6.492;2023-06-26T21:15:58;14.80;97.90
60309;DHT22;50313;52.894;6.492;2023-06-26T21:18:31;14.70;98.10
60309;DHT22;50313;52.894;6.492;2023-06-26T21:21:23;14.70;98.50
60309;DHT22;50313;52.894;6.492;2023-06-26T21:24:16;14.70;99.30
60309;DHT22;50313;52.894;6.492;2023-06-26T21:27:15;14.60;99.90
60309;DHT22;50313;52.894;6.492;2023-06-26T21:29:47;14.50;99.90
60309;DHT22;50313;52.894;6.492;2023-06-26T21:32:33;14.50;99.90
60309;DHT22;50313;52.894;6.492;2023-06-26T21:35:44;14.40;99.90
60309;DHT22;50313;52.894;6.492;2023-06-26T21:38:50;14.30;99.90
60309;DHT22;50313;52.894;6.492;2023-06-26T21:42:14;14.30;99.90
60309;DHT22;50313;52.894;6.492;2023-06-26T21:45:08;14.10;99.90
60309;DHT22;50313;52.894;6.492;2023-06-26T21:48:17;14.20;99.90
60309;DHT22;50313;52.894;6.492;2023-06-26T21:51:06;14.20;99.90
60309;DHT22;50313;52.894;6.492;2023-06-26T21:53:52;14.10;99.90
60309;DHT22;50313;52.894;6.492;2023-06-26T21:57:10;14.10;99.90
60309;DHT22;50313;52.894;6.492;2023-06-26T21:59:39;14.10;99.90
60309;DHT22;50313;52.894;6.492;2023-06-26T22:02:46;14.00;99.90
60309;DHT22;50313;52.894;6.492;2023-06-26T22:05:42;14.00;99.90
60309;DHT22;50313;52.894;6.492;2023-06-26T22:11:29;13.90;99.90
60309;DHT22;50313;52.894;6.492;2023-06-26T22:14:20;13.90;99.90
60309;DHT22;50313;52.894;6.492;2023-06-26T22:20:10;13.80;99.90
60309;DHT22;50313;52.894;6.492;2023-06-26T22:22:44;13.80;99.90
60309;DHT22;50313;52.894;6.492;2023-06-26T22:25:48;13.80;99.90
60309;DHT22;50313;52.894;6.492;2023-06-26T22:28:49;13.80;99.90
60309;DHT22;50313;52.894;6.492;2023-06-26T22:31:23;13.70;99.90
60309;DHT22;50313;52.894;6.492;2023-06-26T22:34:21;13.60;99.90
60309;DHT22;50313;52.894;6.492;2023-06-26T22:37:09;13.60;99.90
60309;DHT22;50313;52.894;6.492;2023-06-26T22:39:41;13.50;99.90
60309;DHT22;50313;52.894;6.492;2023-06-26T22:42:29;13.40;99.90
60309;DHT22;50313;52.894;6.492;2023-06-26T22:45:18;13.40;99.90
60309;DHT22;50313;52.894;6.492;2023-06-26T22:47:51;13.40;99.90
60309;DHT22;50313;52.894;6.492;2023-06-26T22:50:23;13.40;99.90
60309;DHT22;50313;52.894;6.492;2023-06-26T22:52:54;13.30;99.90
60309;DHT22;50313;52.894;6.492;2023-06-26T22:55:38;13.30;99.90
60309;DHT22;50313;52.894;6.492;2023-06-26T22:58:16;13.30;99.90
60309;DHT22;50313;52.894;6.492;2023-06-26T23:01:00;13.30;99.90
60309;DHT22;50313;52.894;6.492;2023-06-26T23:03:33;13.40;99.90
60309;DHT22;50313;52.894;6.492;2023-06-26T23:06:27;13.30;99.90
60309;DHT22;50313;52.894;6.492;2023-06-26T23:08:54;13.20;99.90
60309;DHT22;50313;52.894;6.492;2023-06-26T23:11:39;13.10;99.90
60309;DHT22;50313;52.894;6.492;2023-06-26T23:14:17;13.20;99.90
60309;DHT22;50313;52.894;6.492;2023-06-26T23:16:55;13.10;99.90
60309;DHT22;50313;52.894;6.492;2023-06-26T23:19:57;13.10;99.90
60309;DHT22;50313;52.894;6.492;2023-06-26T23:22:31;13.10;99.90
60309;DHT22;50313;52.894;6.492;2023-06-26T23:25:32;13.10;99.90
60309;DHT22;50313;52.894;6.492;2023-06-26T23:28:05;13.00;99.90
60309;DHT22;50313;52.894;6.492;2023-06-26T23:31:05;13.00;99.90
60309;DHT22;50313;52.894;6.492;2023-06-26T23:33:48;13.00;99.90
60309;DHT22;50313;52.894;6.492;2023-06-26T23:36:23;12.90;99.90
60309;DHT22;50313;52.894;6.492;2023-06-26T23:39:11;12.90;99.90
60309;DHT22;50313;52.894;6.492;2023-06-26T23:41:44;12.90;99.90
60309;DHT22;50313;52.894;6.492;2023-06-26T23:44:38;12.90;99.90
60309;DHT22;50313;52.894;6.492;2023-06-26T23:47:15;12.90;99.90
60309;DHT22;50313;52.894;6.492;2023-06-26T23:49:54;12.90;99.90
60309;DHT22;50313;52.894;6.492;2023-06-26T23:55:50;12.90;99.90
60309;DHT22;50313;52.894;6.492;2023-06-26T23:58:30;12.90;99.90
